createdAt,value
2022-07-28T00:04:11.698Z,23.30
2022-07-28T00:19:16.305Z,23.40
2022-07-28T00:34:20.688Z,23.30
2022-07-28T00:49:31.100Z,23.30
2022-07-28T01:04:35.965Z,23.10
2022-07-28T01:19:45.840Z,23.00
2022-07-28T01:34:57.259Z,23.00
2022-07-28T01:50:05.875Z,22.70
2022-07-28T02:05:12.322Z,22.40
2022-07-28T02:20:18.872Z,22.70
2022-07-28T02:35:32.045Z,22.70
2022-07-28T02:50:40.898Z,22.70
2022-07-28T03:05:46.008Z,22.70
2022-07-28T03:20:50.398Z,22.60
2022-07-28T03:35:59.129Z,22.60
2022-07-28T03:51:03.779Z,22.60
2022-07-28T04:06:08.239Z,22.50
2022-07-28T04:21:12.616Z,22.30
2022-07-28T04:36:17.422Z,22.40
2022-07-28T04:51:23.121Z,22.40
2022-07-28T05:06:27.586Z,22.40
2022-07-28T05:21:32.028Z,22.40
2022-07-28T05:36:36.922Z,22.30
2022-07-28T05:51:42.008Z,22.40
2022-07-28T06:06:46.507Z,22.40
2022-07-28T06:21:52.398Z,22.40
2022-07-28T06:36:56.801Z,22.50
2022-07-28T06:52:01.919Z,22.50
2022-07-28T07:07:14.986Z,22.60
2022-07-28T07:22:21.737Z,22.70
2022-07-28T07:37:26.179Z,22.80
2022-07-28T07:52:30.680Z,22.70
2022-07-28T08:07:35.182Z,22.60
2022-07-28T08:22:49.993Z,22.90
2022-07-28T08:37:54.532Z,23.30
2022-07-28T08:53:00.212Z,23.20
2022-07-28T09:08:04.936Z,23.20
2022-07-28T09:23:42.188Z,23.60
2022-07-28T09:38:42.204Z,23.30
2022-07-28T09:53:46.933Z,24.00
2022-07-28T10:08:52.667Z,23.80
2022-07-28T10:23:58.441Z,24.50
2022-07-28T10:39:11.199Z,24.40
2022-07-28T10:54:25.188Z,24.90
2022-07-28T11:09:29.755Z,24.90
2022-07-28T11:25:19.062Z,25.00
2022-07-28T11:40:34.940Z,25.40
2022-07-28T11:55:55.624Z,25.60
2022-07-28T12:11:03.939Z,25.90
2022-07-28T12:26:10.083Z,26.20
2022-07-28T12:41:16.950Z,26.30
2022-07-28T12:56:21.404Z,26.60
2022-07-28T13:11:47.756Z,26.80
2022-07-28T13:26:52.505Z,26.70
2022-07-28T13:41:59.082Z,26.90
2022-07-28T13:57:03.829Z,27.30
2022-07-28T14:12:10.903Z,27.80
2022-07-28T14:27:15.700Z,28.30
2022-07-28T14:42:20.369Z,27.80
2022-07-28T14:57:50.366Z,28.90
2022-07-28T15:12:50.710Z,27.90
2022-07-28T15:27:56.182Z,27.70
2022-07-28T15:43:00.583Z,27.40
2022-07-28T15:58:05.044Z,27.20
2022-07-28T16:13:09.944Z,27.00
2022-07-28T16:28:14.750Z,27.10
2022-07-28T16:43:19.278Z,28.90
2022-07-28T16:58:23.710Z,32.00
2022-07-28T17:13:28.165Z,30.90
2022-07-28T17:28:32.884Z,29.90
2022-07-28T17:43:42.261Z,30.70
2022-07-28T17:58:49.715Z,30.60
2022-07-28T18:14:03.974Z,29.70
2022-07-28T18:29:09.578Z,29.40
2022-07-28T18:44:14.375Z,28.60
2022-07-28T18:59:19.154Z,28.20
2022-07-28T19:14:23.617Z,27.70
2022-07-28T19:29:28.024Z,27.30
2022-07-28T19:44:32.701Z,27.00
2022-07-28T19:59:37.139Z,26.80
2022-07-28T20:14:41.594Z,26.60
2022-07-28T20:29:46.082Z,26.40
2022-07-28T20:44:51.306Z,26.20
2022-07-28T20:59:55.710Z,26.00
2022-07-28T21:15:00.114Z,25.80
2022-07-28T21:30:05.565Z,25.70
2022-07-28T21:45:11.407Z,25.70
2022-07-28T22:00:21.608Z,25.50
2022-07-28T22:15:25.985Z,25.40
2022-07-28T22:30:30.427Z,25.30
2022-07-28T22:45:50.028Z,25.10
2022-07-28T23:00:56.063Z,25.10
2022-07-28T23:16:00.925Z,25.00
2022-07-28T23:31:05.801Z,24.80
2022-07-28T23:46:10.922Z,24.80
